createdAt,value
2018-03-02T00:00:33.866Z,23.52
2018-03-02T00:03:02.664Z,20.60
2018-03-02T00:05:31.446Z,21.15
2018-03-02T00:08:00.277Z,22.90
2018-03-02T00:10:29.121Z,22.20
2018-03-02T00:12:57.938Z,21.37
2018-03-02T00:15:26.733Z,22.27
2018-03-02T00:17:55.568Z,22.37
2018-03-02T00:20:24.382Z,22.30
2018-03-02T00:22:53.215Z,23.60
2018-03-02T00:25:21.999Z,23.20
2018-03-02T00:27:50.850Z,21.92
2018-03-02T00:30:19.709Z,23.62
2018-03-02T00:32:48.541Z,20.45
2018-03-02T00:35:17.080Z,22.30
2018-03-02T00:37:45.873Z,22.73
2018-03-02T00:40:14.727Z,23.85
2018-03-02T00:42:43.535Z,23.33
2018-03-02T00:45:13.159Z,22.27
2018-03-02T00:47:41.947Z,23.73
2018-03-02T00:50:10.826Z,22.67
2018-03-02T00:52:40.451Z,22.92
2018-03-02T00:55:09.262Z,24.48
2018-03-02T00:57:38.085Z,19.90
2018-03-02T01:00:06.601Z,23.35
2018-03-02T01:02:35.534Z,19.23
2018-03-02T01:05:04.367Z,23.08
2018-03-02T01:07:33.434Z,23.02
2018-03-02T01:10:02.248Z,23.60
2018-03-02T01:12:31.844Z,23.08
2018-03-02T01:15:01.421Z,22.75
2018-03-02T01:17:30.297Z,22.85
2018-03-02T01:19:59.152Z,21.70
2018-03-02T01:22:28.695Z,24.55
2018-03-02T01:24:57.567Z,23.92
2018-03-02T01:27:26.358Z,22.05
2018-03-02T01:29:55.300Z,19.00
2018-03-02T01:32:24.091Z,24.35
2018-03-02T01:34:52.934Z,23.25
2018-03-02T01:37:21.714Z,26.95
2018-03-02T01:39:50.544Z,22.55
2018-03-02T01:42:19.384Z,22.60
2018-03-02T01:44:48.221Z,22.25
2018-03-02T01:47:17.159Z,24.23
2018-03-02T01:49:45.954Z,24.90
2018-03-02T01:52:14.815Z,22.25
2018-03-02T01:54:43.707Z,22.75
2018-03-02T01:57:13.322Z,24.37
2018-03-02T01:59:42.917Z,24.23
2018-03-02T02:02:12.515Z,21.27
2018-03-02T02:04:41.346Z,22.33
2018-03-02T02:07:10.166Z,23.20
2018-03-02T02:09:38.990Z,22.73
2018-03-02T02:12:07.793Z,25.00
2018-03-02T02:14:37.363Z,24.52
2018-03-02T02:17:06.183Z,21.10
2018-03-02T02:19:35.769Z,23.20
2018-03-02T02:22:04.642Z,21.95
2018-03-02T02:24:33.478Z,23.40
2018-03-02T02:27:03.072Z,25.27
2018-03-02T02:29:32.669Z,23.92
2018-03-02T02:32:01.542Z,24.67
2018-03-02T02:34:30.317Z,24.00
2018-03-02T02:36:59.185Z,24.48
2018-03-02T02:39:31.203Z,24.60
2018-03-02T02:42:00.022Z,23.05
2018-03-02T02:44:28.870Z,25.37
2018-03-02T02:46:57.664Z,22.10
2018-03-02T02:49:26.501Z,25.15
2018-03-02T02:51:55.338Z,23.83
2018-03-02T02:54:24.171Z,24.15
2018-03-02T02:56:53.016Z,23.85
2018-03-02T02:59:21.562Z,23.00
2018-03-02T03:01:50.392Z,24.75
2018-03-02T03:04:18.917Z,23.10
2018-03-02T03:06:47.734Z,25.80
2018-03-02T03:09:16.523Z,24.00
2018-03-02T03:11:45.340Z,24.55
2018-03-02T03:14:14.144Z,25.15
2018-03-02T03:16:43.756Z,22.42
2018-03-02T03:19:13.297Z,23.60
2018-03-02T03:21:42.160Z,25.12
2018-03-02T03:24:10.997Z,26.00
2018-03-02T03:26:39.768Z,25.27
2018-03-02T03:29:08.584Z,25.58
2018-03-02T03:31:37.395Z,23.40
2018-03-02T03:34:06.999Z,24.98
2018-03-02T03:36:36.535Z,24.45
2018-03-02T03:39:04.778Z,25.05
2018-03-02T03:41:33.637Z,24.15
2018-03-02T03:44:02.450Z,26.05
2018-03-02T03:46:31.266Z,25.50
2018-03-02T03:49:00.049Z,24.35
2018-03-02T03:51:29.643Z,25.58
2018-03-02T03:53:59.230Z,25.40
2018-03-02T03:56:28.035Z,24.80
2018-03-02T03:58:56.874Z,23.98
2018-03-02T04:01:25.654Z,27.10
2018-03-02T04:03:54.493Z,25.75
2018-03-02T04:06:23.326Z,28.73
2018-03-02T04:08:52.115Z,25.27
2018-03-02T04:11:20.943Z,24.63
2018-03-02T04:13:49.736Z,25.55
2018-03-02T04:16:18.575Z,25.90
2018-03-02T04:18:47.404Z,27.00
2018-03-02T04:21:15.956Z,27.62
2018-03-02T04:23:44.782Z,25.80
2018-03-02T04:26:13.457Z,24.65
2018-03-02T04:28:42.319Z,24.75
2018-03-02T04:31:11.122Z,25.40
2018-03-02T04:33:39.907Z,25.20
2018-03-02T04:36:08.708Z,23.85
2018-03-02T04:38:37.464Z,26.08
2018-03-02T04:41:06.306Z,24.90
2018-03-02T04:43:35.151Z,27.45
2018-03-02T04:46:03.986Z,26.85
2018-03-02T04:48:32.817Z,23.10
2018-03-02T04:51:01.628Z,23.65
2018-03-02T04:53:30.450Z,26.12
2018-03-02T04:55:59.274Z,27.55
2018-03-02T04:58:28.083Z,27.20
2018-03-02T05:00:56.917Z,26.73
2018-03-02T05:03:25.718Z,25.95
2018-03-02T05:05:54.519Z,25.80
2018-03-02T05:08:23.335Z,25.55
2018-03-02T05:10:52.174Z,25.48
2018-03-02T05:13:20.992Z,25.80
2018-03-02T05:15:49.794Z,25.98
2018-03-02T05:18:18.653Z,25.65
2018-03-02T05:20:47.487Z,25.98
2018-03-02T05:23:16.320Z,24.73
2018-03-02T05:25:45.147Z,26.87
2018-03-02T05:28:13.925Z,25.08
2018-03-02T05:30:42.761Z,25.42
2018-03-02T05:33:11.594Z,26.80
2018-03-02T05:35:41.167Z,23.83
2018-03-02T05:38:09.998Z,25.35
2018-03-02T05:40:39.602Z,27.20
2018-03-02T05:43:09.199Z,25.40
2018-03-02T05:45:38.804Z,27.67
2018-03-02T05:48:07.627Z,27.52
2018-03-02T05:50:36.417Z,27.37
2018-03-02T05:53:05.231Z,27.25
2018-03-02T05:55:34.029Z,23.87
2018-03-02T05:58:02.870Z,24.70
2018-03-02T06:00:31.680Z,24.87
2018-03-02T06:03:00.528Z,27.23
2018-03-02T06:05:30.073Z,24.92
2018-03-02T06:07:58.891Z,26.67
2018-03-02T06:10:27.730Z,27.30
2018-03-02T06:12:57.271Z,27.80
2018-03-02T06:15:26.083Z,28.35
2018-03-02T06:17:54.882Z,26.60
2018-03-02T06:20:23.738Z,26.90
2018-03-02T06:22:52.589Z,27.70
2018-03-02T06:25:22.150Z,28.60
2018-03-02T06:27:50.654Z,29.15
2018-03-02T06:30:19.501Z,26.95
2018-03-02T06:32:48.326Z,33.90
2018-03-02T06:35:17.140Z,29.50
2018-03-02T06:37:46.706Z,27.92
2018-03-02T06:40:15.591Z,26.98
2018-03-02T06:42:44.555Z,30.02
2018-03-02T06:45:13.377Z,23.67
2018-03-02T06:47:42.186Z,28.20
2018-03-02T06:50:10.954Z,27.95
2018-03-02T06:52:39.815Z,28.73
2018-03-02T06:55:08.627Z,26.75
2018-03-02T06:57:37.455Z,27.62
2018-03-02T07:00:07.046Z,27.15
2018-03-02T07:02:35.934Z,26.20
2018-03-02T07:05:04.443Z,27.83
2018-03-02T07:07:34.070Z,26.50
2018-03-02T07:10:02.935Z,29.10
2018-03-02T07:12:54.589Z,26.58
2018-03-02T07:15:23.410Z,28.33
2018-03-02T07:17:52.210Z,27.60
2018-03-02T07:20:21.030Z,28.92
2018-03-02T07:22:50.692Z,27.15
2018-03-02T07:25:20.247Z,28.15
2018-03-02T07:27:49.826Z,29.12
2018-03-02T07:30:18.349Z,27.33
2018-03-02T07:32:47.560Z,27.05
2018-03-02T07:35:16.499Z,29.45
2018-03-02T07:37:45.259Z,28.17
2018-03-02T07:40:14.074Z,27.37
2018-03-02T07:42:42.916Z,28.23
2018-03-02T07:45:11.832Z,26.95
2018-03-02T07:47:40.709Z,28.05
2018-03-02T07:50:09.510Z,24.50
2018-03-02T07:52:38.318Z,27.23
2018-03-02T07:55:07.155Z,32.92
2018-03-02T07:57:35.962Z,28.02
2018-03-02T08:00:14.602Z,34.78
2018-03-02T08:02:43.499Z,31.23
2018-03-02T08:05:12.372Z,28.38
2018-03-02T08:07:41.217Z,28.33
2018-03-02T08:10:10.039Z,26.45
2018-03-02T08:12:38.875Z,27.20
2018-03-02T08:15:08.442Z,27.17
2018-03-02T08:17:37.306Z,27.58
2018-03-02T08:20:06.151Z,28.40
2018-03-02T08:22:34.945Z,27.50
2018-03-02T08:25:03.838Z,25.20
2018-03-02T08:27:32.635Z,27.62
2018-03-02T08:30:02.281Z,28.87
2018-03-02T08:32:31.129Z,24.98
2018-03-02T08:35:00.715Z,29.20
2018-03-02T08:37:29.515Z,25.58
2018-03-02T08:39:58.746Z,27.98
2018-03-02T08:42:27.547Z,27.17
2018-03-02T08:44:56.404Z,26.65
2018-03-02T08:47:26.087Z,28.48
2018-03-02T08:49:54.943Z,26.10
2018-03-02T08:52:23.765Z,26.58
2018-03-02T08:54:52.602Z,28.02
2018-03-02T08:57:21.450Z,25.08
2018-03-02T08:59:50.278Z,26.05
2018-03-02T09:02:19.136Z,28.42
2018-03-02T09:04:48.710Z,27.27
2018-03-02T09:07:17.552Z,26.17
2018-03-02T09:09:46.402Z,22.90
2018-03-02T09:12:15.243Z,27.62
2018-03-02T09:14:44.092Z,28.27
2018-03-02T09:17:13.712Z,25.25
2018-03-02T09:19:43.321Z,25.90
2018-03-02T09:22:12.944Z,26.52
2018-03-02T09:24:41.798Z,28.67
2018-03-02T09:27:10.650Z,23.98
2018-03-02T09:29:39.418Z,28.17
2018-03-02T09:32:08.310Z,24.75
2018-03-02T09:34:37.180Z,27.55
2018-03-02T09:37:06.766Z,28.12
2018-03-02T09:39:35.618Z,25.65
2018-03-02T09:42:04.329Z,24.52
2018-03-02T09:44:32.562Z,24.30
2018-03-02T09:47:01.460Z,23.75
2018-03-02T09:49:30.262Z,26.45
2018-03-02T09:51:59.108Z,25.65
2018-03-02T09:54:28.675Z,27.58
2018-03-02T09:56:57.356Z,28.92
2018-03-02T09:59:26.183Z,27.90
2018-03-02T10:01:55.817Z,26.80
2018-03-02T10:04:24.665Z,26.90
2018-03-02T10:06:53.664Z,25.88
2018-03-02T10:09:23.289Z,22.35
2018-03-02T10:11:52.220Z,26.50
2018-03-02T10:14:20.778Z,25.50
2018-03-02T10:16:49.618Z,26.37
2018-03-02T10:19:18.539Z,27.60
2018-03-02T10:21:48.154Z,28.52
2018-03-02T10:24:16.992Z,27.83
2018-03-02T10:26:45.795Z,27.00
2018-03-02T10:29:14.507Z,28.05
2018-03-02T10:31:44.222Z,27.62
2018-03-02T10:34:12.818Z,27.43
2018-03-02T10:36:43.134Z,29.00
2018-03-02T10:39:11.999Z,21.42
2018-03-02T10:41:41.582Z,26.17
2018-03-02T10:44:10.419Z,29.83
2018-03-02T10:46:38.958Z,29.97
2018-03-02T10:49:08.314Z,30.17
2018-03-02T10:51:37.014Z,31.27
2018-03-02T10:54:05.565Z,28.23
2018-03-02T10:56:34.109Z,28.50
2018-03-02T10:59:03.966Z,29.53
2018-03-02T11:01:34.379Z,28.93
2018-03-02T11:04:02.765Z,27.97
2018-03-02T11:06:31.277Z,27.73
2018-03-02T11:08:59.833Z,28.43
2018-03-02T11:11:28.207Z,32.00
2018-03-02T11:13:56.840Z,28.20
2018-03-02T11:16:25.480Z,30.47
2018-03-02T11:18:54.026Z,29.37
2018-03-02T11:21:22.627Z,29.20
2018-03-02T11:23:51.199Z,31.13
2018-03-02T11:26:19.734Z,27.93
2018-03-02T11:28:48.290Z,27.63
2018-03-02T11:31:16.802Z,29.73
2018-03-02T11:33:45.367Z,29.40
2018-03-02T11:36:13.985Z,28.00
2018-03-02T11:38:42.780Z,28.73
2018-03-02T11:41:11.400Z,29.67
2018-03-02T11:43:40.975Z,26.50
2018-03-02T11:46:09.579Z,29.23
2018-03-02T11:48:38.150Z,28.53
2018-03-02T11:51:06.616Z,32.07
2018-03-02T11:53:35.942Z,32.70
2018-03-02T11:56:04.494Z,58.13
2018-03-02T11:58:33.028Z,35.10
2018-03-02T12:01:01.603Z,31.20
2018-03-02T12:03:30.123Z,30.43
2018-03-02T12:05:58.228Z,29.47
2018-03-02T12:08:27.580Z,30.17
2018-03-02T12:10:56.037Z,28.33
2018-03-02T12:13:24.571Z,27.50
2018-03-02T12:15:53.098Z,29.10
2018-03-02T12:18:21.653Z,28.60
2018-03-02T12:20:50.964Z,27.97
2018-03-02T12:23:25.859Z,27.23
2018-03-02T12:25:54.495Z,26.70
2018-03-02T12:28:23.050Z,28.20
2018-03-02T12:30:52.379Z,28.83
2018-03-02T12:33:20.949Z,29.03
2018-03-02T12:35:49.502Z,27.10
2018-03-02T12:38:18.155Z,27.97
2018-03-02T12:40:46.746Z,28.93
2018-03-02T12:43:15.354Z,29.20
2018-03-02T12:45:44.069Z,28.97
2018-03-02T12:48:12.730Z,30.43
2018-03-02T12:50:41.285Z,27.17
2018-03-02T12:53:09.855Z,29.90
2018-03-02T12:55:39.348Z,29.37
2018-03-02T12:58:07.898Z,28.03
2018-03-02T13:00:36.411Z,28.77
2018-03-02T13:03:04.975Z,28.37
2018-03-02T13:05:33.473Z,29.33
2018-03-02T13:08:02.079Z,28.73
2018-03-02T13:10:30.637Z,28.13
2018-03-02T13:12:59.193Z,27.63
2018-03-02T13:15:27.736Z,26.33
2018-03-02T13:17:56.259Z,26.33
2018-03-02T13:20:25.318Z,28.90
2018-03-02T13:22:53.939Z,31.83
2018-03-02T13:25:22.549Z,27.17
2018-03-02T13:28:05.586Z,29.43
2018-03-02T13:30:34.114Z,28.93
2018-03-02T13:33:14.953Z,27.90
2018-03-02T13:35:43.523Z,27.60
2018-03-02T13:38:12.077Z,28.23
2018-03-02T13:40:51.669Z,30.53
2018-03-02T13:43:20.294Z,27.47
2018-03-02T13:45:48.833Z,28.80
2018-03-02T13:48:37.439Z,26.90
2018-03-02T13:51:06.044Z,27.33
2018-03-02T13:53:34.568Z,29.63
2018-03-02T13:56:03.237Z,29.47
2018-03-02T13:58:31.579Z,28.60
2018-03-02T14:01:00.180Z,29.30
2018-03-02T14:03:39.994Z,30.03
2018-03-02T14:06:08.565Z,29.43
2018-03-02T14:08:37.140Z,31.73
2018-03-02T14:11:06.163Z,29.47
2018-03-02T14:13:34.730Z,29.77
2018-03-02T14:16:03.313Z,29.63
2018-03-02T14:18:31.851Z,30.07
2018-03-02T14:21:00.372Z,28.93
2018-03-02T14:23:29.014Z,30.40
2018-03-02T14:25:57.580Z,29.67
2018-03-02T14:28:26.114Z,28.53
2018-03-02T14:30:55.464Z,29.83
2018-03-02T14:33:24.022Z,29.93
2018-03-02T14:35:52.573Z,29.77
2018-03-02T14:38:21.164Z,28.33
2018-03-02T14:40:50.150Z,28.90
2018-03-02T14:43:19.487Z,28.37
2018-03-02T14:45:47.770Z,27.63
2018-03-02T14:48:16.354Z,30.97
2018-03-02T14:50:44.930Z,30.23
2018-03-02T14:53:13.593Z,29.50
2018-03-02T14:55:42.140Z,28.40
2018-03-02T14:58:10.735Z,28.50
2018-03-02T15:00:39.292Z,29.37
2018-03-02T15:03:07.876Z,27.50
2018-03-02T15:05:36.132Z,28.43
2018-03-02T15:08:04.742Z,27.17
2018-03-02T15:10:33.329Z,28.53
2018-03-02T15:13:01.914Z,29.63
2018-03-02T15:15:30.466Z,39.10
2018-03-02T15:17:58.975Z,31.10
2018-03-02T15:20:27.512Z,32.33
2018-03-02T15:22:56.164Z,31.47
2018-03-02T15:25:24.724Z,30.90
2018-03-02T15:27:53.278Z,32.83
2018-03-02T15:30:21.788Z,36.07
2018-03-02T15:32:50.059Z,44.60
2018-03-02T15:35:18.350Z,33.00
2018-03-02T15:37:46.887Z,61.47
2018-03-02T15:40:15.595Z,73.73
2018-03-02T15:42:44.181Z,46.97
2018-03-02T15:45:12.605Z,41.27
2018-03-02T15:47:41.919Z,36.97
2018-03-02T15:50:10.498Z,32.83
2018-03-02T15:52:39.154Z,30.67
2018-03-02T15:55:07.684Z,31.17
2018-03-02T15:57:36.066Z,31.20
2018-03-02T16:00:04.626Z,29.73
2018-03-02T16:02:33.211Z,30.53
2018-03-02T16:05:01.782Z,31.30
2018-03-02T16:07:31.137Z,32.93
2018-03-02T16:09:59.725Z,42.17
2018-03-02T16:12:28.252Z,32.27
2018-03-02T16:14:57.608Z,31.50
2018-03-02T16:17:26.176Z,33.60
2018-03-02T16:19:54.708Z,31.67
2018-03-02T16:22:24.095Z,32.17
2018-03-02T16:24:53.454Z,33.17
2018-03-02T16:27:21.998Z,32.10
2018-03-02T16:29:51.350Z,32.17
2018-03-02T16:32:19.905Z,31.67
2018-03-02T16:34:48.483Z,32.20
2018-03-02T16:37:16.701Z,34.80
2018-03-02T16:39:45.256Z,33.67
2018-03-02T16:42:13.850Z,35.10
2018-03-02T16:44:42.394Z,68.90
2018-03-02T16:47:10.984Z,34.93
2018-03-02T16:49:40.272Z,37.37
2018-03-02T16:52:09.625Z,32.73
2018-03-02T16:54:38.164Z,30.53
2018-03-02T16:57:08.077Z,33.23
2018-03-02T16:59:36.847Z,31.73
2018-03-02T17:02:05.400Z,40.00
2018-03-02T17:04:34.403Z,34.60
2018-03-02T17:07:03.086Z,35.43
2018-03-02T17:09:31.710Z,34.67
2018-03-02T17:12:01.067Z,35.40
2018-03-02T17:14:29.876Z,33.63
2018-03-02T17:16:58.594Z,34.50
2018-03-02T17:19:27.906Z,34.10
2018-03-02T17:21:56.518Z,33.70
2018-03-02T17:24:25.091Z,33.83
2018-03-02T17:26:53.621Z,33.33
2018-03-02T17:29:22.167Z,33.03
2018-03-02T17:31:50.764Z,33.80
2018-03-02T17:34:19.549Z,33.80
2018-03-02T17:36:48.172Z,32.03
2018-03-02T17:39:17.553Z,33.13
2018-03-02T17:41:46.137Z,33.70
2018-03-02T17:44:14.702Z,32.67
2018-03-02T17:46:43.324Z,34.03
2018-03-02T17:49:12.713Z,31.17
2018-03-02T17:51:42.035Z,34.30
2018-03-02T17:54:11.381Z,39.00
2018-03-02T17:56:39.945Z,39.50
2018-03-02T17:59:08.548Z,40.87
2018-03-02T18:01:37.090Z,36.93
2018-03-02T18:04:06.398Z,50.83
2018-03-02T18:06:34.969Z,44.37
2018-03-02T18:09:03.166Z,32.00
2018-03-02T18:11:33.511Z,33.77
2018-03-02T18:14:02.088Z,34.53
2018-03-02T18:16:30.633Z,33.63
2018-03-02T18:18:59.220Z,35.47
2018-03-02T18:21:27.920Z,36.27
2018-03-02T18:23:56.526Z,38.50
2018-03-02T18:26:35.051Z,36.13
2018-03-02T18:29:03.544Z,36.67
2018-03-02T18:31:32.102Z,35.30
2018-03-02T18:34:00.674Z,34.07
2018-03-02T18:36:29.325Z,32.37
2018-03-02T18:38:57.890Z,34.00
2018-03-02T18:41:26.494Z,38.90
2018-03-02T18:43:55.881Z,39.23
2018-03-02T18:46:25.230Z,36.93
2018-03-02T18:48:53.845Z,35.40
2018-03-02T18:51:22.386Z,33.50
2018-03-02T18:53:50.889Z,33.40
2018-03-02T18:56:19.464Z,33.33
2018-03-02T18:58:49.075Z,37.10
2018-03-02T19:01:17.897Z,36.50
2018-03-02T19:03:46.551Z,35.67
2018-03-02T19:06:15.090Z,37.13
2018-03-02T19:08:44.156Z,33.20
2018-03-02T19:11:13.014Z,35.15
2018-03-02T19:13:41.589Z,38.43
2018-03-02T19:16:10.302Z,35.10
2018-03-02T19:18:38.895Z,36.33
2018-03-02T19:21:07.471Z,34.97
2018-03-02T19:23:35.704Z,37.27
2018-03-02T19:26:03.934Z,39.83
2018-03-02T19:28:32.498Z,38.83
2018-03-02T19:31:01.049Z,45.30
2018-03-02T19:33:30.687Z,40.03
2018-03-02T19:35:59.224Z,38.03
2018-03-02T19:38:27.729Z,37.90
2018-03-02T19:40:56.542Z,39.95
2018-03-02T19:43:25.250Z,38.10
2018-03-02T19:45:53.803Z,39.97
2018-03-02T19:48:24.773Z,41.80
2018-03-02T19:50:53.605Z,39.10
2018-03-02T19:53:23.188Z,37.28
2018-03-02T19:55:52.032Z,38.72
2018-03-02T19:58:20.556Z,35.97
2018-03-02T20:00:49.848Z,38.47
2018-03-02T20:03:18.757Z,37.42
2018-03-02T20:05:47.243Z,40.20
2018-03-02T20:08:15.853Z,40.73
2018-03-02T20:10:44.623Z,54.20
2018-03-02T20:13:13.171Z,40.53
2018-03-02T20:15:42.023Z,37.63
2018-03-02T20:18:10.837Z,39.47
2018-03-02T20:20:39.456Z,37.20
2018-03-02T20:23:08.313Z,37.55
2018-03-02T20:25:37.165Z,37.72
2018-03-02T20:28:06.018Z,37.90
2018-03-02T20:30:35.318Z,36.67
2018-03-02T20:33:04.174Z,39.22
2018-03-02T20:35:32.987Z,38.67
2018-03-02T20:38:01.552Z,38.73
2018-03-02T20:40:30.393Z,38.40
2018-03-02T20:43:00.133Z,37.10
2018-03-02T20:45:29.131Z,39.28
2018-03-02T20:48:01.427Z,39.45
2018-03-02T20:50:30.767Z,37.57
2018-03-02T20:53:00.422Z,38.22
2018-03-02T20:55:28.990Z,36.33
2018-03-02T20:57:57.875Z,35.85
2018-03-02T21:00:26.666Z,37.80
2018-03-02T21:02:55.568Z,38.10
2018-03-02T21:05:24.489Z,37.58
2018-03-02T21:07:53.811Z,35.47
2018-03-02T21:10:22.664Z,36.40
2018-03-02T21:12:55.870Z,38.73
2018-03-02T21:15:24.545Z,38.00
2018-03-02T21:17:57.270Z,36.67
2018-03-02T21:20:25.877Z,38.57
2018-03-02T21:22:54.767Z,38.67
2018-03-02T21:25:23.483Z,37.73
2018-03-02T21:27:52.337Z,36.83
2018-03-02T21:30:21.196Z,37.97
2018-03-02T21:32:49.784Z,33.70
2018-03-02T21:35:19.414Z,35.15
2018-03-02T21:37:47.979Z,35.93
2018-03-02T21:40:16.480Z,35.80
2018-03-02T21:42:45.367Z,34.58
2018-03-02T21:45:15.010Z,34.65
2018-03-02T21:47:43.919Z,33.07
2018-03-02T21:50:16.498Z,34.70
2018-03-02T21:52:45.094Z,36.13
2018-03-02T21:55:13.970Z,34.58
2018-03-02T21:57:42.834Z,35.03
2018-03-02T22:00:11.391Z,34.23
2018-03-02T22:02:40.007Z,31.80
2018-03-02T22:05:08.568Z,34.43
2018-03-02T22:07:37.164Z,33.00
2018-03-02T22:10:06.048Z,35.05
2018-03-02T22:12:34.624Z,33.53
2018-03-02T22:15:03.470Z,34.22
2018-03-02T22:17:32.036Z,35.47
2018-03-02T22:20:01.402Z,36.03
2018-03-02T22:22:30.275Z,35.15
2018-03-02T22:24:58.892Z,38.43
2018-03-02T22:27:27.660Z,38.17
2018-03-02T22:29:56.246Z,39.13
2018-03-02T22:32:24.841Z,40.53
2018-03-02T22:34:53.410Z,38.17
2018-03-02T22:37:22.223Z,38.72
2018-03-02T22:39:51.085Z,39.47
2018-03-02T22:42:19.867Z,39.70
2018-03-02T22:44:48.715Z,40.70
2018-03-02T22:47:17.499Z,39.60
2018-03-02T22:49:46.352Z,39.80
2018-03-02T22:52:15.201Z,41.33
2018-03-02T22:54:43.987Z,42.05
2018-03-02T22:57:12.825Z,40.92
2018-03-02T22:59:41.671Z,40.60
2018-03-02T23:02:11.269Z,40.97
2018-03-02T23:04:40.141Z,44.80
2018-03-02T23:07:08.952Z,42.97
2018-03-02T23:09:38.563Z,44.60
2018-03-02T23:12:07.136Z,49.57
2018-03-02T23:14:36.012Z,45.70
2018-03-02T23:17:04.588Z,44.67
2018-03-02T23:19:33.440Z,49.42
2018-03-02T23:22:02.010Z,48.20
2018-03-02T23:24:30.595Z,52.23
2018-03-02T23:26:59.395Z,47.40
2018-03-02T23:29:28.275Z,50.00
2018-03-02T23:31:57.103Z,51.15
2018-03-02T23:34:25.957Z,50.63
2018-03-02T23:36:54.760Z,52.55
2018-03-02T23:39:23.622Z,51.15
2018-03-02T23:41:52.459Z,55.05
2018-03-02T23:44:21.293Z,58.13
2018-03-02T23:46:50.195Z,53.05
2018-03-02T23:49:19.018Z,51.33
2018-03-02T23:51:47.888Z,51.17
2018-03-02T23:54:16.422Z,50.92
2018-03-02T23:56:45.206Z,51.95
2018-03-02T23:59:13.790Z,51.13
